createdAt,value
2023-05-21T00:00:17.869Z,17.30
2023-05-21T00:02:45.988Z,17.30
2023-05-21T00:05:15.538Z,17.30
2023-05-21T00:07:44.016Z,17.30
2023-05-21T00:10:13.773Z,17.30
2023-05-21T00:12:42.632Z,17.30
2023-05-21T00:15:11.543Z,17.20
2023-05-21T00:17:40.028Z,17.10
2023-05-21T00:20:10.001Z,17.10
2023-05-21T00:22:37.971Z,17.00
2023-05-21T00:25:06.460Z,17.00
2023-05-21T00:27:35.823Z,17.00
2023-05-21T00:30:04.852Z,17.00
2023-05-21T00:32:32.840Z,17.00
2023-05-21T00:35:00.842Z,17.00
2023-05-21T00:37:29.815Z,16.90
2023-05-21T00:39:58.466Z,16.90
2023-05-21T00:42:27.262Z,16.80
2023-05-21T00:44:56.933Z,16.90
2023-05-21T00:47:26.960Z,16.80
2023-05-21T00:49:55.464Z,16.80
2023-05-21T00:52:26.715Z,16.80
2023-05-21T00:54:54.940Z,16.80
2023-05-21T00:57:27.069Z,16.70
2023-05-21T00:59:56.487Z,16.70
2023-05-21T01:02:26.120Z,16.70
2023-05-21T01:04:56.129Z,16.70
2023-05-21T01:07:24.089Z,16.60
2023-05-21T01:09:52.199Z,16.60
2023-05-21T01:12:21.944Z,16.60
2023-05-21T01:14:50.769Z,16.60
2023-05-21T01:17:24.250Z,16.60
2023-05-21T01:19:54.624Z,16.60
2023-05-21T01:22:25.088Z,16.60
2023-05-21T01:24:55.488Z,16.60
2023-05-21T01:27:23.488Z,16.50
2023-05-21T01:29:51.485Z,16.60
2023-05-21T01:32:27.262Z,16.60
2023-05-21T01:35:01.885Z,16.60
2023-05-21T01:37:34.811Z,16.60
2023-05-21T01:40:10.348Z,16.60
2023-05-21T01:42:40.008Z,16.70
2023-05-21T01:45:09.576Z,16.70
2023-05-21T01:47:38.676Z,16.70
2023-05-21T01:50:07.846Z,16.70
2023-05-21T01:52:35.867Z,16.60
2023-05-21T01:55:05.722Z,16.60
2023-05-21T01:57:33.667Z,16.60
2023-05-21T02:00:02.149Z,16.60
2023-05-21T02:02:30.251Z,16.50
2023-05-21T02:04:58.298Z,16.50
2023-05-21T02:07:28.972Z,16.40
2023-05-21T02:09:57.185Z,16.40
2023-05-21T02:12:28.260Z,16.40
2023-05-21T02:14:56.363Z,16.40
2023-05-21T02:17:25.139Z,16.50
2023-05-21T02:19:53.244Z,16.50
2023-05-21T02:22:21.138Z,16.50
2023-05-21T02:24:49.081Z,16.50
2023-05-21T02:27:17.709Z,16.40
2023-05-21T02:29:47.025Z,16.40
2023-05-21T02:32:14.974Z,16.40
2023-05-21T02:34:43.887Z,16.40
2023-05-21T02:37:11.807Z,16.40
2023-05-21T02:39:39.743Z,16.40
2023-05-21T02:42:07.676Z,16.30
2023-05-21T02:44:35.564Z,16.30
2023-05-21T02:47:04.953Z,16.30
2023-05-21T02:49:32.946Z,16.20
2023-05-21T02:52:00.941Z,16.20
2023-05-21T02:54:28.891Z,16.20
2023-05-21T02:56:56.814Z,16.20
2023-05-21T02:59:24.814Z,16.20
2023-05-21T03:01:52.829Z,16.20
2023-05-21T03:04:22.718Z,16.10
2023-05-21T03:06:55.216Z,16.10
2023-05-21T03:09:23.699Z,16.10
2023-05-21T03:11:51.837Z,16.10
2023-05-21T03:14:19.794Z,16.10
2023-05-21T03:16:49.048Z,16.10
2023-05-21T03:19:17.209Z,16.10
2023-05-21T03:21:46.791Z,16.10
2023-05-21T03:24:15.335Z,16.10
2023-05-21T03:26:43.393Z,16.10
2023-05-21T03:29:11.297Z,16.00
2023-05-21T03:31:39.224Z,16.00
2023-05-21T03:34:08.526Z,15.90
2023-05-21T03:36:36.441Z,15.90
2023-05-21T03:39:06.377Z,15.90
2023-05-21T03:41:34.324Z,15.90
2023-05-21T03:44:02.257Z,15.90
2023-05-21T03:46:30.272Z,15.80
2023-05-21T03:48:59.162Z,15.80
2023-05-21T03:51:27.488Z,15.80
2023-05-21T03:53:55.453Z,15.80
2023-05-21T03:56:24.676Z,15.80
2023-05-21T03:58:52.678Z,15.80
2023-05-21T04:01:20.644Z,15.80
2023-05-21T04:03:48.907Z,15.70
2023-05-21T04:06:17.546Z,15.70
2023-05-21T04:08:45.525Z,15.70
2023-05-21T04:11:13.441Z,15.70
2023-05-21T04:13:42.750Z,15.70
2023-05-21T04:16:10.804Z,15.70
2023-05-21T04:18:38.892Z,15.70
2023-05-21T04:21:06.873Z,15.70
2023-05-21T04:23:36.673Z,15.70
2023-05-21T04:26:04.785Z,15.70
2023-05-21T04:28:33.189Z,15.70
2023-05-21T04:31:02.751Z,15.70
2023-05-21T04:33:30.796Z,15.70
2023-05-21T04:35:58.979Z,15.70
2023-05-21T04:38:26.929Z,15.70
2023-05-21T04:40:55.681Z,15.70
2023-05-21T04:43:26.110Z,15.80
2023-05-21T04:45:54.747Z,15.80
2023-05-21T04:48:25.616Z,15.80
2023-05-21T04:50:54.617Z,15.80
2023-05-21T04:53:23.095Z,15.80
2023-05-21T04:55:51.005Z,15.80
2023-05-21T04:58:19.181Z,15.80
2023-05-21T05:00:47.337Z,15.90
2023-05-21T05:03:16.185Z,15.90
2023-05-21T05:05:45.726Z,15.90
2023-05-21T05:08:15.797Z,15.90
2023-05-21T05:10:44.191Z,15.90
2023-05-21T05:13:12.591Z,16.00
2023-05-21T05:15:41.160Z,16.00
2023-05-21T05:18:09.332Z,16.10
2023-05-21T05:20:37.291Z,16.10
2023-05-21T05:23:06.638Z,16.10
2023-05-21T05:25:34.624Z,16.10
2023-05-21T05:28:02.691Z,16.10
2023-05-21T05:30:30.675Z,16.20
2023-05-21T05:32:58.656Z,16.20
2023-05-21T05:35:26.893Z,16.20
2023-05-21T05:37:54.837Z,16.30
2023-05-21T05:40:24.110Z,16.30
2023-05-21T05:42:52.778Z,16.30
2023-05-21T05:45:20.930Z,16.30
2023-05-21T05:47:48.920Z,16.30
2023-05-21T05:50:16.946Z,16.40
2023-05-21T05:52:44.921Z,16.40
2023-05-21T05:55:13.000Z,16.40
2023-05-21T05:57:43.770Z,16.50
2023-05-21T06:00:14.169Z,16.50
2023-05-21T06:02:42.276Z,16.60
2023-05-21T06:05:11.423Z,16.60
2023-05-21T06:07:39.755Z,16.60
2023-05-21T06:10:08.427Z,16.70
2023-05-21T06:12:36.463Z,16.70
2023-05-21T06:15:06.810Z,16.70
2023-05-21T06:17:34.831Z,16.70
2023-05-21T06:20:02.996Z,16.70
2023-05-21T06:22:31.008Z,16.80
2023-05-21T06:24:58.954Z,16.80
2023-05-21T06:27:26.881Z,16.90
2023-05-21T06:29:54.781Z,16.90
2023-05-21T06:32:24.209Z,17.00
2023-05-21T06:34:52.213Z,17.10
2023-05-21T06:37:21.551Z,17.10
2023-05-21T06:39:49.993Z,17.20
2023-05-21T06:42:18.063Z,17.20
2023-05-21T06:44:46.135Z,17.30
2023-05-21T06:47:14.078Z,17.30
2023-05-21T06:49:43.769Z,17.40
2023-05-21T06:52:11.758Z,17.40
2023-05-21T06:54:39.759Z,17.40
2023-05-21T06:57:07.685Z,17.50
2023-05-21T06:59:35.671Z,17.50
2023-05-21T07:02:04.785Z,17.60
2023-05-21T07:04:35.101Z,17.60
2023-05-21T07:07:04.894Z,17.70
2023-05-21T07:09:33.003Z,17.80
2023-05-21T07:12:01.235Z,17.90
2023-05-21T07:14:29.251Z,17.90
2023-05-21T07:16:57.305Z,18.00
2023-05-21T07:19:25.396Z,18.00
2023-05-21T07:21:53.511Z,18.10
2023-05-21T07:24:22.826Z,18.20
2023-05-21T07:26:51.057Z,18.30
2023-05-21T07:29:19.010Z,18.40
2023-05-21T07:31:46.976Z,18.50
2023-05-21T07:34:14.925Z,18.50
2023-05-21T07:36:42.860Z,18.60
2023-05-21T07:39:11.005Z,18.70
2023-05-21T07:41:40.345Z,18.70
2023-05-21T07:44:08.836Z,18.80
2023-05-21T07:46:36.914Z,18.80
2023-05-21T07:49:04.988Z,18.80
2023-05-21T07:51:33.036Z,18.90
2023-05-21T07:54:01.320Z,18.90
2023-05-21T07:56:29.451Z,18.90
2023-05-21T07:58:58.798Z,19.00
2023-05-21T08:01:28.341Z,19.10
2023-05-21T08:03:56.490Z,19.10
2023-05-21T08:06:24.566Z,19.20
2023-05-21T08:08:54.305Z,19.20
2023-05-21T08:11:23.363Z,19.30
2023-05-21T08:13:51.517Z,19.40
2023-05-21T08:16:21.201Z,19.50
2023-05-21T08:18:49.119Z,19.60
2023-05-21T08:21:17.369Z,19.60
2023-05-21T08:23:45.543Z,19.70
2023-05-21T08:26:16.327Z,19.80
2023-05-21T08:28:44.323Z,19.80
2023-05-21T08:31:12.464Z,19.80
2023-05-21T08:33:50.907Z,19.90
2023-05-21T08:36:18.924Z,20.00
2023-05-21T08:38:46.891Z,20.10
2023-05-21T08:41:15.000Z,20.20
2023-05-21T08:43:44.734Z,20.30
2023-05-21T08:46:13.147Z,20.40
2023-05-21T08:48:43.219Z,20.40
2023-05-21T08:51:11.196Z,20.50
2023-05-21T08:53:39.207Z,20.60
2023-05-21T08:56:08.613Z,20.70
2023-05-21T08:58:38.123Z,20.70
2023-05-21T09:01:06.655Z,20.80
2023-05-21T09:03:35.058Z,20.90
2023-05-21T09:06:04.942Z,21.00
2023-05-21T09:08:36.488Z,21.00
2023-05-21T09:11:04.476Z,21.10
2023-05-21T09:13:35.390Z,21.10
2023-05-21T09:16:04.314Z,21.20
2023-05-21T09:18:32.293Z,21.20
2023-05-21T09:21:00.625Z,21.20
2023-05-21T09:23:30.135Z,21.30
2023-05-21T09:25:58.314Z,21.30
2023-05-21T09:28:26.498Z,21.30
2023-05-21T09:30:54.637Z,21.30
2023-05-21T09:33:26.609Z,21.30
2023-05-21T09:35:54.679Z,21.40
2023-05-21T09:38:23.836Z,21.40
2023-05-21T09:40:56.506Z,21.40
2023-05-21T09:43:24.651Z,21.40
2023-05-21T09:45:53.541Z,21.40
2023-05-21T09:48:35.437Z,21.40
2023-05-21T09:51:11.613Z,21.50
2023-05-21T09:53:51.625Z,21.40
2023-05-21T09:56:25.693Z,21.50
2023-05-21T09:58:55.602Z,21.50
2023-05-21T10:01:24.774Z,21.50
2023-05-21T10:03:57.381Z,21.50
2023-05-21T10:06:28.455Z,21.50
2023-05-21T10:08:57.742Z,21.60
2023-05-21T10:11:31.333Z,21.60
2023-05-21T10:14:05.858Z,21.70
2023-05-21T10:16:35.069Z,21.70
2023-05-21T10:19:04.444Z,21.80
2023-05-21T10:21:34.791Z,21.90
2023-05-21T10:24:04.225Z,22.00
2023-05-21T10:26:34.273Z,22.00
2023-05-21T10:29:03.955Z,22.20
2023-05-21T10:31:33.165Z,22.20
2023-05-21T10:34:02.198Z,22.30
2023-05-21T10:36:32.073Z,22.30
2023-05-21T10:39:02.898Z,22.40
2023-05-21T10:41:43.835Z,22.50
2023-05-21T10:44:21.473Z,22.60
2023-05-21T10:47:12.918Z,22.60
2023-05-21T10:49:52.912Z,22.60
2023-05-21T10:52:34.186Z,22.60
2023-05-21T10:55:18.170Z,22.70
2023-05-21T10:58:07.565Z,22.80
2023-05-21T11:00:35.855Z,22.90
2023-05-21T11:03:05.380Z,23.10
2023-05-21T11:05:41.275Z,23.20
2023-05-21T11:08:22.662Z,23.30
2023-05-21T11:10:55.137Z,23.40
2023-05-21T11:13:24.873Z,23.50
2023-05-21T11:16:09.122Z,23.50
2023-05-21T11:18:59.807Z,23.60
2023-05-21T11:21:31.249Z,23.60
2023-05-21T11:24:11.075Z,23.70
2023-05-21T11:27:04.416Z,23.70
2023-05-21T11:29:44.777Z,23.80
2023-05-21T11:32:20.593Z,23.70
2023-05-21T11:34:49.374Z,23.70
2023-05-21T11:37:30.970Z,23.70
2023-05-21T11:40:30.775Z,23.70
2023-05-21T11:42:58.779Z,23.70
2023-05-21T11:45:32.166Z,23.80
2023-05-21T11:48:01.177Z,23.80
2023-05-21T11:50:30.754Z,23.80
2023-05-21T11:53:00.291Z,23.80
2023-05-21T11:55:28.581Z,23.90
2023-05-21T11:57:56.576Z,23.90
2023-05-21T12:00:24.602Z,24.00
2023-05-21T12:02:55.943Z,24.00
2023-05-21T12:05:25.281Z,24.00
2023-05-21T12:07:54.605Z,24.10
2023-05-21T12:10:23.797Z,24.10
2023-05-21T12:12:55.594Z,24.10
2023-05-21T12:15:25.800Z,24.20
2023-05-21T12:17:56.858Z,24.20
2023-05-21T12:20:28.114Z,24.20
2023-05-21T12:22:57.732Z,24.20
2023-05-21T12:25:25.934Z,24.20
2023-05-21T12:27:58.916Z,24.20
2023-05-21T12:30:27.305Z,24.20
2023-05-21T12:32:59.312Z,24.20
2023-05-21T12:35:27.490Z,24.20
2023-05-21T12:37:55.791Z,24.10
2023-05-21T12:40:35.443Z,24.10
2023-05-21T12:43:03.698Z,24.10
2023-05-21T12:45:33.424Z,24.00
2023-05-21T12:48:04.443Z,24.00
2023-05-21T12:50:35.516Z,24.00
2023-05-21T12:53:03.905Z,24.00
2023-05-21T12:55:32.950Z,24.00
2023-05-21T12:58:05.432Z,24.00
2023-05-21T13:00:34.667Z,24.00
2023-05-21T13:03:06.221Z,24.00
2023-05-21T13:05:34.999Z,24.00
2023-05-21T13:08:02.982Z,24.00
2023-05-21T13:10:30.930Z,24.00
2023-05-21T13:12:58.880Z,24.00
2023-05-21T13:15:26.886Z,24.10
2023-05-21T13:17:56.790Z,24.10
2023-05-21T13:20:27.494Z,24.10
2023-05-21T13:22:55.851Z,24.00
2023-05-21T13:25:28.525Z,24.00
2023-05-21T13:27:57.115Z,23.90
2023-05-21T13:30:25.021Z,23.90
2023-05-21T13:32:53.112Z,23.80
2023-05-21T13:35:21.515Z,23.80
2023-05-21T13:37:51.133Z,23.70
2023-05-21T13:40:19.126Z,23.70
2023-05-21T13:42:48.973Z,23.60
2023-05-21T13:45:19.630Z,23.60
2023-05-21T13:47:48.594Z,23.60
2023-05-21T13:50:17.061Z,23.50
2023-05-21T13:52:45.085Z,23.50
2023-05-21T13:55:15.823Z,23.50
2023-05-21T13:57:44.023Z,23.50
2023-05-21T14:00:15.167Z,23.50
2023-05-21T14:02:44.011Z,23.50
2023-05-21T14:05:12.693Z,23.50
2023-05-21T14:07:41.836Z,23.50
2023-05-21T14:10:10.442Z,23.60
2023-05-21T14:12:40.663Z,23.60
2023-05-21T14:15:12.332Z,23.60
2023-05-21T14:17:42.342Z,23.60
2023-05-21T14:20:11.141Z,23.70
2023-05-21T14:22:39.249Z,23.70
2023-05-21T14:25:08.184Z,23.70
2023-05-21T14:27:37.693Z,23.80
2023-05-21T14:30:08.387Z,23.80
2023-05-21T14:32:36.432Z,23.80
2023-05-21T14:35:05.734Z,23.80
2023-05-21T14:37:33.777Z,23.80
2023-05-21T14:40:01.771Z,23.80
2023-05-21T14:42:30.534Z,23.90
2023-05-21T14:44:58.987Z,23.80
2023-05-21T14:47:28.371Z,23.80
2023-05-21T14:49:56.321Z,23.80
2023-05-21T14:52:24.255Z,23.90
2023-05-21T14:54:52.288Z,23.90
2023-05-21T14:57:20.747Z,23.80
2023-05-21T14:59:48.707Z,23.90
2023-05-21T15:02:16.734Z,23.90
2023-05-21T15:04:46.174Z,23.90
2023-05-21T15:07:14.236Z,23.90
2023-05-21T15:09:42.167Z,23.90
2023-05-21T15:12:10.130Z,23.90
2023-05-21T15:14:38.049Z,23.80
2023-05-21T15:17:06.210Z,23.80
2023-05-21T15:19:34.168Z,23.80
2023-05-21T15:22:03.728Z,23.80
2023-05-21T15:24:31.691Z,23.70
2023-05-21T15:26:59.836Z,23.70
2023-05-21T15:29:27.894Z,23.70
2023-05-21T15:31:56.037Z,23.70
2023-05-21T15:34:24.012Z,23.60
2023-05-21T15:36:51.963Z,23.60
2023-05-21T15:39:21.321Z,23.60
2023-05-21T15:41:49.225Z,23.60
2023-05-21T15:44:17.199Z,23.60
2023-05-21T15:46:45.219Z,23.60
2023-05-21T15:49:13.211Z,23.50
2023-05-21T15:51:41.186Z,23.50
2023-05-21T15:54:09.195Z,23.50
2023-05-21T15:56:38.429Z,23.50
2023-05-21T15:59:06.414Z,23.50
2023-05-21T16:01:34.969Z,23.50
2023-05-21T16:04:03.711Z,23.40
2023-05-21T16:06:32.367Z,23.40
2023-05-21T16:09:00.968Z,23.40
2023-05-21T16:11:28.973Z,23.40
2023-05-21T16:13:58.546Z,23.30
2023-05-21T16:16:26.625Z,23.30
2023-05-21T16:18:55.018Z,23.30
2023-05-21T16:21:23.030Z,23.30
2023-05-21T16:23:51.229Z,23.30
2023-05-21T16:26:19.218Z,23.30
2023-05-21T16:28:47.211Z,23.30
2023-05-21T16:31:16.537Z,23.20
2023-05-21T16:33:44.463Z,23.20
2023-05-21T16:36:12.417Z,23.20
2023-05-21T16:38:40.351Z,23.20
2023-05-21T16:41:08.377Z,23.20
2023-05-21T16:43:37.158Z,23.20
2023-05-21T16:46:05.214Z,23.20
2023-05-21T16:48:36.106Z,23.20
2023-05-21T16:51:06.121Z,23.20
2023-05-21T16:53:34.077Z,23.20
2023-05-21T16:56:02.204Z,23.20
2023-05-21T16:58:30.185Z,23.20
2023-05-21T17:00:58.146Z,23.20
2023-05-21T17:03:26.208Z,23.20
2023-05-21T17:05:55.639Z,23.20
2023-05-21T17:08:23.612Z,23.20
2023-05-21T17:10:51.565Z,23.20
2023-05-21T17:13:22.616Z,23.20
2023-05-21T17:15:51.967Z,23.20
2023-05-21T17:18:20.046Z,23.20
2023-05-21T17:20:48.049Z,23.20
2023-05-21T17:23:17.562Z,23.10
2023-05-21T17:25:45.611Z,23.10
2023-05-21T17:28:13.604Z,23.10
2023-05-21T17:30:41.672Z,23.10
2023-05-21T17:33:10.401Z,23.10
2023-05-21T17:35:39.153Z,23.10
2023-05-21T17:38:07.523Z,23.10
2023-05-21T17:40:36.819Z,23.00
2023-05-21T17:43:07.226Z,22.90
2023-05-21T17:45:35.596Z,22.90
2023-05-21T17:48:03.920Z,22.90
2023-05-21T17:50:32.032Z,22.80
2023-05-21T17:53:00.710Z,22.80
2023-05-21T17:55:28.757Z,22.70
2023-05-21T17:57:58.053Z,22.70
2023-05-21T18:00:26.021Z,22.60
2023-05-21T18:02:54.057Z,22.60
2023-05-21T18:05:22.788Z,22.50
2023-05-21T18:07:51.172Z,22.40
2023-05-21T18:10:19.135Z,22.30
2023-05-21T18:12:47.160Z,22.30
2023-05-21T18:15:16.903Z,22.20
2023-05-21T18:17:45.043Z,22.10
2023-05-21T18:20:14.482Z,22.10
2023-05-21T18:22:42.475Z,22.00
2023-05-21T18:25:11.037Z,21.90
2023-05-21T18:27:39.089Z,21.90
2023-05-21T18:30:08.567Z,21.90
2023-05-21T18:32:39.361Z,21.80
2023-05-21T18:35:10.680Z,21.80
2023-05-21T18:37:42.051Z,21.80
2023-05-21T18:40:11.209Z,21.80
2023-05-21T18:42:39.159Z,21.70
2023-05-21T18:45:08.515Z,21.70
2023-05-21T18:47:39.155Z,21.60
2023-05-21T18:50:09.144Z,21.50
2023-05-21T18:52:37.129Z,21.50
2023-05-21T18:55:06.612Z,21.40
2023-05-21T18:57:34.905Z,21.40
2023-05-21T19:00:03.306Z,21.30
2023-05-21T19:02:31.583Z,21.10
2023-05-21T19:05:01.919Z,21.10
2023-05-21T19:07:30.014Z,21.10
2023-05-21T19:09:59.915Z,21.00
2023-05-21T19:12:29.283Z,21.00
2023-05-21T19:14:57.275Z,21.00
2023-05-21T19:17:25.490Z,20.90
2023-05-21T19:19:55.900Z,20.90
2023-05-21T19:22:26.240Z,20.90
2023-05-21T19:24:54.703Z,20.80
2023-05-21T19:27:22.747Z,20.70
2023-05-21T19:29:51.644Z,20.70
2023-05-21T19:32:20.712Z,20.60
2023-05-21T19:34:48.620Z,20.50
2023-05-21T19:37:16.719Z,20.50
2023-05-21T19:39:49.556Z,20.40
2023-05-21T19:42:18.712Z,20.40
2023-05-21T19:44:46.798Z,20.30
2023-05-21T19:47:15.002Z,20.20
2023-05-21T19:49:43.249Z,20.20
2023-05-21T19:52:12.072Z,20.20
2023-05-21T19:54:40.077Z,20.20
2023-05-21T19:57:12.137Z,20.20
2023-05-21T19:59:40.897Z,20.20
2023-05-21T20:02:15.072Z,20.10
2023-05-21T20:04:43.030Z,20.10
2023-05-21T20:07:11.058Z,20.00
2023-05-21T20:09:39.709Z,19.90
2023-05-21T20:12:09.921Z,19.80
2023-05-21T20:14:37.968Z,19.80
2023-05-21T20:17:07.089Z,19.80
2023-05-21T20:19:35.889Z,19.80
2023-05-21T20:22:04.012Z,19.70
2023-05-21T20:24:31.993Z,19.70
2023-05-21T20:27:01.625Z,19.70
2023-05-21T20:29:31.795Z,19.60
2023-05-21T20:31:59.939Z,19.60
2023-05-21T20:34:29.545Z,19.60
2023-05-21T20:36:58.332Z,19.60
2023-05-21T20:39:28.596Z,19.60
2023-05-21T20:41:58.170Z,19.50
2023-05-21T20:44:27.560Z,19.50
2023-05-21T20:46:56.883Z,19.40
2023-05-21T20:49:25.899Z,19.30
2023-05-21T20:51:53.871Z,19.30
2023-05-21T20:54:22.220Z,19.20
2023-05-21T20:56:50.746Z,19.00
2023-05-21T20:59:18.793Z,19.10
2023-05-21T21:01:46.855Z,19.00
2023-05-21T21:04:16.173Z,19.10
2023-05-21T21:06:46.526Z,19.10
2023-05-21T21:09:14.526Z,19.10
2023-05-21T21:11:42.441Z,19.10
2023-05-21T21:14:10.454Z,19.20
2023-05-21T21:16:38.550Z,19.20
2023-05-21T21:19:06.569Z,19.20
2023-05-21T21:21:35.963Z,19.20
2023-05-21T21:24:03.979Z,19.20
2023-05-21T21:26:31.911Z,19.20
2023-05-21T21:28:59.904Z,19.20
2023-05-21T21:31:27.920Z,19.10
2023-05-21T21:33:55.969Z,19.10
2023-05-21T21:36:24.000Z,19.10
2023-05-21T21:38:53.267Z,19.10
2023-05-21T21:41:22.419Z,19.10
2023-05-21T21:43:51.648Z,19.10
2023-05-21T21:46:19.825Z,19.10
2023-05-21T21:48:47.860Z,19.10
2023-05-21T21:51:16.311Z,19.00
2023-05-21T21:53:44.502Z,19.00
2023-05-21T21:56:13.802Z,18.90
2023-05-21T21:58:41.903Z,18.90
2023-05-21T22:01:10.100Z,18.90
2023-05-21T22:03:38.162Z,18.90
2023-05-21T22:06:06.375Z,18.80
2023-05-21T22:08:34.363Z,18.80
2023-05-21T22:11:02.570Z,18.70
2023-05-21T22:13:31.887Z,18.70
2023-05-21T22:15:59.955Z,18.60
2023-05-21T22:18:38.924Z,18.60
2023-05-21T22:21:09.806Z,18.50
2023-05-21T22:23:38.535Z,18.50
2023-05-21T22:26:06.587Z,18.40
2023-05-21T22:28:36.022Z,18.40
2023-05-21T22:31:04.170Z,18.30
2023-05-21T22:33:32.465Z,18.30
2023-05-21T22:36:00.449Z,18.20
2023-05-21T22:38:28.460Z,18.20
2023-05-21T22:40:56.552Z,18.20
2023-05-21T22:43:24.504Z,18.20
2023-05-21T22:45:53.776Z,18.20
2023-05-21T22:48:22.543Z,18.20
2023-05-21T22:50:53.298Z,18.20
2023-05-21T22:53:21.513Z,18.20
2023-05-21T22:55:49.482Z,18.10
2023-05-21T22:58:17.523Z,18.20
2023-05-21T23:00:45.448Z,18.00
2023-05-21T23:03:14.802Z,18.00
2023-05-21T23:05:42.994Z,18.00
2023-05-21T23:08:10.977Z,17.90
2023-05-21T23:10:39.071Z,17.90
2023-05-21T23:13:07.149Z,17.90
2023-05-21T23:15:38.703Z,17.90
2023-05-21T23:18:07.752Z,17.80
2023-05-21T23:20:39.545Z,17.80
2023-05-21T23:23:07.836Z,17.70
2023-05-21T23:25:36.564Z,17.60
2023-05-21T23:28:04.824Z,17.60
2023-05-21T23:30:32.741Z,17.60
2023-05-21T23:33:00.992Z,17.50
2023-05-21T23:35:28.974Z,17.50
2023-05-21T23:37:58.287Z,17.60
2023-05-21T23:40:26.300Z,17.50
2023-05-21T23:42:54.271Z,17.50
2023-05-21T23:45:22.381Z,17.50
2023-05-21T23:47:50.617Z,17.60
2023-05-21T23:50:18.657Z,17.50
2023-05-21T23:52:46.754Z,17.50
2023-05-21T23:55:16.098Z,17.50
2023-05-21T23:57:44.097Z,17.40
